メインページ
METAR-TAF:

METAR-TAF

空港 :

サンクトペテルブルク, ロシア

プルコヴォ空港

緯度: 59-58N, 経度: 030-18E, 海抜: 4m

現時点の気象観測

当レポートは23分前の20:30(UTC)に作成
の風 4kt、南/南東から南西の間で変化する
気温 -1°C
湿度 93%
気圧 1005 hPa
視程: 8000m
高度1700ftの曇り

METAR: ULLI 112030Z 18002MPS 150V220 8000 OVC017 M01/M02 Q1005 R28R/290050 NOSIG

時間: 23:53 (20:53 UTC)

予報

当レポートは56分前の19:57(UTC)に作成
予報は11日の 21時(UTC)から 12日の 21時(UTC)まで有効
南/南西の風 6kt
視程: 6000m
高度1100ftの曇り
11日の 21時(UTC)から 11日の 24時(UTC)まで一時的に
変向風 2kt
視程: 3100m
高度700ftの千切れ雲あり
高度1100ftの曇り
12日の 01時(UTC)から 12日の 03時(UTC)まで徐々に
南東の風 10kt、最大21ktの突風を伴う
12日の 0800時(UTC)から
南東の風 14kt、最大27ktの突風を伴う
視程: 3100m
高度1100ftの曇り
小雪, 高い地吹雪
12日の 09時(UTC)から 12日の 12時(UTC)まで一時的に
南東の風 16kt、最大31ktの突風を伴う
視程: 1200m
高度400ftの曇り
高度1500ftの千切れ雲あり, 積乱雲.
にわか雪, 高い地吹雪
12日の 12時(UTC)から 12日の 21時(UTC)まで一時的に
南/南東の風 19kt、最大35ktの突風を伴う
視程: 1200m
高度400ftの曇り
高度1500ftの千切れ雲あり, 積乱雲.
にわか雪, 雨, (弱い) 着氷性, 雨

TAF: ULLI 111957Z 1121/1221 20003MPS 6000 OVC011 TEMPO 1121/1124 VRB01MPS 3100 BR BKN007 OVC011 BECMG 1201/1203 14005G11MPS FM120800 13007G14MPS 3100 -SN BLSN OVC011 TEMPO 1209/1212 13008G16MPS 1200 SHSN BLSN OVC004 BKN015CB TEMPO 1212/1221 15010G18MPS 1200 SHSNRA -FZRA OVC004 BKN015CB

4,000以上の空港の気象観測と天気予報(METAR報とTAF報)

利用可能な観測所は地図上に黄色い丸と赤い丸で示す。

丸の上にカーソルを重ねると観測所名を参照できる。

次にクリックすると気象観測と天気予報を参照できる。

マップの切り替え:黒色「×」印の緑ボタンをクリックして拡大、「-」印の緑ボタンをクリックして縮小、緑色の三角印をクリックして隣りの地図に切り替え


METAR-TAF: